createdAt,value
2022-10-05T00:02:26.435Z,71.90
2022-10-05T00:04:55.680Z,71.68
2022-10-05T00:07:24.048Z,71.90
2022-10-05T00:09:58.265Z,71.73
2022-10-05T00:12:26.575Z,71.88
2022-10-05T00:14:56.335Z,71.76
2022-10-05T00:17:25.458Z,71.61
2022-10-05T00:19:52.993Z,71.50
2022-10-05T00:22:29.434Z,71.66
2022-10-05T00:24:58.629Z,71.59
2022-10-05T00:27:33.167Z,71.90
2022-10-05T00:30:01.556Z,71.70
2022-10-05T00:32:28.328Z,71.85
2022-10-05T00:34:57.290Z,71.66
2022-10-05T00:37:23.990Z,71.68
2022-10-05T00:39:50.734Z,71.95
2022-10-05T00:42:34.603Z,71.65
2022-10-05T00:45:14.116Z,71.97
2022-10-05T00:47:43.838Z,72.08
2022-10-05T00:50:28.925Z,72.05
2022-10-05T00:53:10.720Z,71.82
2022-10-05T00:55:59.697Z,71.92
2022-10-05T00:58:43.556Z,72.02
2022-10-05T01:01:15.849Z,72.25
2022-10-05T01:04:05.346Z,72.31
2022-10-05T01:07:16.245Z,72.12
2022-10-05T01:10:05.736Z,72.55
2022-10-05T01:12:50.386Z,72.66
2022-10-05T01:15:35.327Z,72.79
2022-10-05T01:18:31.351Z,73.04
2022-10-05T01:21:13.643Z,72.95
2022-10-05T01:24:01.644Z,73.28
2022-10-05T01:26:59.497Z,73.35
2022-10-05T01:29:38.175Z,73.37
2022-10-05T01:32:09.251Z,73.69
2022-10-05T01:34:42.400Z,73.95
2022-10-05T01:37:19.125Z,73.61
2022-10-05T01:40:12.785Z,73.66
2022-10-05T01:42:49.219Z,73.48
2022-10-05T01:45:21.932Z,73.39
2022-10-05T01:47:50.309Z,73.23
2022-10-05T01:50:29.939Z,72.98
2022-10-05T01:53:20.423Z,72.91
2022-10-05T01:55:56.551Z,72.98
2022-10-05T01:58:39.857Z,72.78
2022-10-05T02:01:18.245Z,73.08
2022-10-05T02:03:53.569Z,73.18
2022-10-05T02:06:24.082Z,73.00
2022-10-05T02:09:11.889Z,72.59
2022-10-05T02:11:44.209Z,72.61
2022-10-05T02:14:13.297Z,72.65
2022-10-05T02:16:41.996Z,72.36
2022-10-05T02:19:16.211Z,72.23
2022-10-05T02:21:47.371Z,72.38
2022-10-05T02:24:21.718Z,72.30
2022-10-05T02:26:51.245Z,72.21
2022-10-05T02:29:21.785Z,72.27
2022-10-05T02:31:53.301Z,72.12
2022-10-05T02:34:46.600Z,72.13
2022-10-05T02:37:29.917Z,72.33
2022-10-05T02:40:18.664Z,72.09
2022-10-05T02:43:09.223Z,72.00
2022-10-05T02:45:44.980Z,72.19
2022-10-05T02:48:27.342Z,72.31
2022-10-05T02:51:03.082Z,72.28
2022-10-05T02:53:39.925Z,72.47
2022-10-05T02:56:15.639Z,72.18
2022-10-05T02:58:50.127Z,72.26
2022-10-05T03:01:29.588Z,72.26
2022-10-05T03:04:07.888Z,72.41
2022-10-05T03:06:50.073Z,72.58
2022-10-05T03:09:17.919Z,72.80
2022-10-05T03:11:59.114Z,72.97
2022-10-05T03:14:27.126Z,73.04
2022-10-05T03:17:11.974Z,73.13
2022-10-05T03:19:54.785Z,73.31
2022-10-05T03:22:27.858Z,73.57
2022-10-05T03:25:18.427Z,73.82
2022-10-05T03:28:04.367Z,73.94
2022-10-05T03:31:03.488Z,74.18
2022-10-05T03:33:46.797Z,74.46
2022-10-05T03:36:30.666Z,74.27
2022-10-05T03:39:04.307Z,74.63
2022-10-05T03:41:43.098Z,74.71
2022-10-05T03:44:25.624Z,74.92
2022-10-05T03:47:07.627Z,75.08
2022-10-05T03:49:59.199Z,75.23
2022-10-05T03:52:45.833Z,75.07
2022-10-05T03:55:31.609Z,74.92
2022-10-05T03:58:03.740Z,75.00
2022-10-05T04:00:31.413Z,75.10
2022-10-05T04:03:08.043Z,75.21
2022-10-05T04:06:19.334Z,74.98
2022-10-05T04:09:00.759Z,75.03
2022-10-05T04:11:35.138Z,74.88
2022-10-05T04:14:10.531Z,75.14
2022-10-05T04:16:45.405Z,74.98
2022-10-05T04:19:19.064Z,74.88
2022-10-05T04:21:52.463Z,74.72
2022-10-05T04:24:26.470Z,74.23
2022-10-05T04:27:00.021Z,74.23
2022-10-05T04:29:33.874Z,74.12
2022-10-05T04:32:19.756Z,73.77
2022-10-05T04:34:49.500Z,74.11
2022-10-05T04:37:32.742Z,74.15
2022-10-05T04:40:08.799Z,74.14
2022-10-05T04:42:46.665Z,74.36
2022-10-05T04:45:39.186Z,74.30
2022-10-05T04:48:35.515Z,74.29
2022-10-05T04:51:17.637Z,74.40
2022-10-05T04:53:54.689Z,74.61
2022-10-05T04:56:31.228Z,74.43
2022-10-05T04:59:17.631Z,74.58
2022-10-05T05:01:47.236Z,74.71
2022-10-05T05:04:17.181Z,74.59
2022-10-05T05:06:53.541Z,74.72
2022-10-05T05:09:42.020Z,74.80
2022-10-05T05:12:13.796Z,75.18
2022-10-05T05:15:18.209Z,74.89
2022-10-05T05:17:59.775Z,74.86
2022-10-05T05:21:04.727Z,74.68
2022-10-05T05:23:50.996Z,74.82
2022-10-05T05:26:30.119Z,75.06
2022-10-05T05:29:34.992Z,74.86
2022-10-05T05:32:14.641Z,74.97
2022-10-05T05:35:00.070Z,74.94
2022-10-05T05:37:32.961Z,75.00
2022-10-05T05:40:21.310Z,75.06
2022-10-05T05:43:15.025Z,75.11
2022-10-05T05:45:43.720Z,74.94
2022-10-05T05:48:26.466Z,74.90
2022-10-05T05:50:59.367Z,75.15
2022-10-05T05:53:32.297Z,74.78
2022-10-05T05:56:04.677Z,74.83
2022-10-05T05:58:34.419Z,74.73
2022-10-05T06:01:33.950Z,74.92
2022-10-05T06:04:22.203Z,74.80
2022-10-05T06:06:52.423Z,74.64
2022-10-05T06:09:31.286Z,74.93
2022-10-05T06:12:15.628Z,74.73
2022-10-05T06:14:56.823Z,74.58
2022-10-05T06:17:43.898Z,74.39
2022-10-05T06:20:28.096Z,74.48
2022-10-05T06:22:59.880Z,74.41
2022-10-05T06:25:42.617Z,74.67
2022-10-05T06:28:14.041Z,74.48
2022-10-05T06:31:05.229Z,74.29
2022-10-05T06:33:47.045Z,74.06
2022-10-05T06:36:39.732Z,74.44
2022-10-05T06:39:38.001Z,74.03
2022-10-05T06:42:13.809Z,74.44
2022-10-05T06:45:08.254Z,74.29
2022-10-05T06:48:05.575Z,74.14
2022-10-05T06:51:13.597Z,74.73
2022-10-05T06:54:18.533Z,74.34
2022-10-05T06:56:50.013Z,73.96
2022-10-05T06:59:25.757Z,73.39
2022-10-05T07:02:06.724Z,73.44
2022-10-05T07:05:12.487Z,73.81
2022-10-05T07:08:20.811Z,73.93
2022-10-05T07:10:59.802Z,74.26
2022-10-05T07:13:54.724Z,74.47
2022-10-05T07:16:47.934Z,74.32
2022-10-05T07:19:33.646Z,74.49
2022-10-05T07:22:39.710Z,74.19
2022-10-05T07:25:30.324Z,74.44
2022-10-05T07:28:06.066Z,73.69
2022-10-05T07:30:40.586Z,73.29
2022-10-05T07:33:31.697Z,72.95
2022-10-05T07:36:31.917Z,72.95
2022-10-05T07:39:11.887Z,73.02
2022-10-05T07:41:48.448Z,73.05
2022-10-05T07:44:30.037Z,72.90
2022-10-05T07:47:18.121Z,72.22
2022-10-05T07:50:05.999Z,70.99
2022-10-05T07:52:36.889Z,70.79
2022-10-05T07:55:26.190Z,69.78
2022-10-05T07:58:13.235Z,70.66
2022-10-05T08:00:59.708Z,70.11
2022-10-05T08:03:45.011Z,70.19
2022-10-05T08:06:24.606Z,70.01
2022-10-05T08:09:08.436Z,69.16
2022-10-05T08:11:52.468Z,69.38
2022-10-05T08:14:44.215Z,68.90
2022-10-05T08:17:21.670Z,68.58
2022-10-05T08:20:03.984Z,68.62
2022-10-05T08:22:38.286Z,67.66
2022-10-05T08:25:13.032Z,67.65
2022-10-05T08:27:50.862Z,67.87
2022-10-05T08:30:17.782Z,67.07
2022-10-05T08:33:03.385Z,66.83
2022-10-05T08:35:39.664Z,65.75
2022-10-05T08:38:31.237Z,65.35
2022-10-05T08:41:36.208Z,64.38
2022-10-05T08:44:09.190Z,64.09
2022-10-05T08:47:11.230Z,63.06
2022-10-05T08:49:46.926Z,62.13
2022-10-05T08:52:25.506Z,62.34
2022-10-05T08:55:10.539Z,61.99
2022-10-05T08:57:49.584Z,61.83
2022-10-05T09:00:22.001Z,62.01
2022-10-05T09:03:28.189Z,61.40
2022-10-05T09:06:16.826Z,61.40
2022-10-05T09:09:22.222Z,61.26
2022-10-05T09:12:27.817Z,61.25
2022-10-05T09:15:24.413Z,60.65
2022-10-05T09:18:29.349Z,60.20
2022-10-05T09:21:10.032Z,60.62
2022-10-05T09:23:39.985Z,60.70
2022-10-05T09:26:25.286Z,60.77
2022-10-05T09:29:07.302Z,60.56
2022-10-05T09:31:55.250Z,60.83
2022-10-05T09:34:37.197Z,59.71
2022-10-05T09:37:34.767Z,60.61
2022-10-05T09:40:37.510Z,61.15
2022-10-05T09:43:23.322Z,60.77
2022-10-05T09:46:29.500Z,59.69
2022-10-05T09:49:14.979Z,59.65
2022-10-05T09:52:19.145Z,59.66
2022-10-05T09:55:10.254Z,58.30
2022-10-05T09:57:39.981Z,57.15
2022-10-05T10:00:15.534Z,58.57
2022-10-05T10:03:02.562Z,58.26
2022-10-05T10:05:52.358Z,56.68
2022-10-05T10:08:43.805Z,56.63
2022-10-05T10:11:24.185Z,55.86
2022-10-05T10:14:14.474Z,54.67
2022-10-05T10:17:03.028Z,54.91
2022-10-05T10:20:07.296Z,54.73
2022-10-05T10:22:43.090Z,54.58
2022-10-05T10:25:35.061Z,54.89
2022-10-05T10:28:23.826Z,55.03
2022-10-05T10:31:16.950Z,56.30
2022-10-05T10:33:46.595Z,56.39
2022-10-05T10:36:33.925Z,55.90
2022-10-05T10:39:29.828Z,56.00
2022-10-05T10:42:07.210Z,56.17
2022-10-05T10:44:49.363Z,56.24
2022-10-05T10:47:28.782Z,56.57
2022-10-05T10:50:24.224Z,56.75
2022-10-05T10:53:10.529Z,56.89
2022-10-05T10:56:05.407Z,56.75
2022-10-05T10:58:51.839Z,55.54
2022-10-05T11:01:33.738Z,54.30
2022-10-05T11:04:07.714Z,54.98
2022-10-05T11:07:05.687Z,53.91
2022-10-05T11:09:53.605Z,51.15
2022-10-05T11:12:41.641Z,52.47
2022-10-05T11:15:20.705Z,52.25
2022-10-05T11:17:58.181Z,52.48
2022-10-05T11:20:42.326Z,51.29
2022-10-05T11:23:27.510Z,51.93
2022-10-05T11:26:16.140Z,51.84
2022-10-05T11:28:54.392Z,50.73
2022-10-05T11:31:31.285Z,50.58
2022-10-05T11:34:09.594Z,51.21
2022-10-05T11:36:42.256Z,51.73
2022-10-05T11:39:39.221Z,52.60
2022-10-05T11:42:23.909Z,51.13
2022-10-05T11:45:06.385Z,51.31
2022-10-05T11:47:40.714Z,50.67
2022-10-05T11:50:26.988Z,51.35
2022-10-05T11:53:04.493Z,50.65
2022-10-05T11:55:40.494Z,51.72
2022-10-05T11:58:51.276Z,52.16
2022-10-05T12:01:25.114Z,52.29
2022-10-05T12:04:16.827Z,53.73
2022-10-05T12:07:04.061Z,52.63
2022-10-05T12:10:02.860Z,52.60
2022-10-05T12:12:36.009Z,53.17
2022-10-05T12:15:27.135Z,52.67
2022-10-05T12:18:10.868Z,52.50
2022-10-05T12:20:46.900Z,53.38
2022-10-05T12:23:21.052Z,53.71
2022-10-05T12:25:51.414Z,52.29
2022-10-05T12:28:23.837Z,53.32
2022-10-05T12:31:13.908Z,53.10
2022-10-05T12:34:12.526Z,53.22
2022-10-05T12:37:06.456Z,53.76
2022-10-05T12:40:11.623Z,54.14
2022-10-05T12:42:47.799Z,52.40
2022-10-05T12:45:30.249Z,53.79
2022-10-05T12:48:02.302Z,53.86
2022-10-05T12:50:35.618Z,52.60
2022-10-05T12:53:11.400Z,54.01
2022-10-05T12:56:05.138Z,51.28
2022-10-05T12:58:48.937Z,50.69
2022-10-05T13:01:27.532Z,50.47
2022-10-05T13:04:22.332Z,49.97
2022-10-05T13:07:07.707Z,49.74
2022-10-05T13:09:43.143Z,51.75
2022-10-05T13:12:52.488Z,51.67
2022-10-05T13:15:20.550Z,51.80
2022-10-05T13:18:03.384Z,51.34
2022-10-05T13:20:47.618Z,49.41
2022-10-05T13:23:30.196Z,48.94
2022-10-05T13:26:04.145Z,49.80
2022-10-05T13:28:36.311Z,48.96
2022-10-05T13:31:07.300Z,49.24
2022-10-05T13:33:54.914Z,49.39
2022-10-05T13:36:53.082Z,49.46
2022-10-05T13:39:46.041Z,49.28
2022-10-05T13:42:19.665Z,49.57
2022-10-05T13:45:04.603Z,49.58
2022-10-05T13:48:06.760Z,49.61
2022-10-05T13:50:35.694Z,49.44
2022-10-05T13:53:43.287Z,49.55
2022-10-05T13:56:42.999Z,49.46
2022-10-05T13:59:43.866Z,49.93
2022-10-05T14:02:12.884Z,49.88
2022-10-05T14:04:51.085Z,50.24
2022-10-05T14:07:31.788Z,50.42
2022-10-05T14:09:59.797Z,50.17
2022-10-05T14:12:27.745Z,50.30
2022-10-05T14:14:57.441Z,51.14
2022-10-05T14:17:33.389Z,51.27
2022-10-05T14:20:01.366Z,51.62
2022-10-05T14:22:29.353Z,52.11
2022-10-05T14:25:03.244Z,52.28
2022-10-05T14:27:33.331Z,52.07
2022-10-05T14:30:19.590Z,51.78
2022-10-05T14:33:00.602Z,51.64
2022-10-05T14:35:32.776Z,52.13
2022-10-05T14:38:02.369Z,51.98
2022-10-05T14:40:38.145Z,51.82
2022-10-05T14:43:22.974Z,52.03
2022-10-05T14:45:55.922Z,52.14
2022-10-05T14:48:22.866Z,51.20
2022-10-05T14:50:59.497Z,51.64
2022-10-05T14:53:38.134Z,52.03
2022-10-05T14:56:17.745Z,52.53
2022-10-05T14:58:50.779Z,52.56
2022-10-05T15:01:26.724Z,52.38
2022-10-05T15:04:18.166Z,52.89
2022-10-05T15:07:04.104Z,52.84
2022-10-05T15:09:55.545Z,53.18
2022-10-05T15:12:29.811Z,53.23
2022-10-05T15:15:03.812Z,53.50
2022-10-05T15:17:41.198Z,53.56
2022-10-05T15:20:29.154Z,53.55
2022-10-05T15:23:24.999Z,54.10
2022-10-05T15:26:29.088Z,53.99
2022-10-05T15:28:55.966Z,53.96
2022-10-05T15:31:39.426Z,53.72
2022-10-05T15:34:30.741Z,53.97
2022-10-05T15:37:22.489Z,54.77
2022-10-05T15:39:58.400Z,53.98
2022-10-05T15:42:36.657Z,53.90
2022-10-05T15:45:15.810Z,54.03
2022-10-05T15:48:01.723Z,54.40
2022-10-05T15:50:57.070Z,54.42
2022-10-05T15:53:33.498Z,54.06
2022-10-05T15:56:04.851Z,53.83
2022-10-05T15:58:46.832Z,54.01
2022-10-05T16:01:20.864Z,54.17
2022-10-05T16:04:11.575Z,54.10
2022-10-05T16:07:01.986Z,54.23
2022-10-05T16:09:53.654Z,54.27
2022-10-05T16:12:29.271Z,54.38
2022-10-05T16:15:16.387Z,54.72
2022-10-05T16:18:00.957Z,54.40
2022-10-05T16:20:41.154Z,54.47
2022-10-05T16:23:48.004Z,54.85
2022-10-05T16:26:31.835Z,54.94
2022-10-05T16:29:11.944Z,55.36
2022-10-05T16:31:54.576Z,55.07
2022-10-05T16:34:45.630Z,55.13
2022-10-05T16:37:28.338Z,54.92
2022-10-05T16:40:00.752Z,55.29
2022-10-05T16:42:46.795Z,55.53
2022-10-05T16:45:16.582Z,56.45
2022-10-05T16:48:02.767Z,56.50
2022-10-05T16:51:07.702Z,57.13
2022-10-05T16:53:39.721Z,57.29
2022-10-05T16:56:11.366Z,57.56
2022-10-05T16:59:15.876Z,57.85
2022-10-05T17:02:03.315Z,57.70
2022-10-05T17:04:41.250Z,58.32
2022-10-05T17:07:39.475Z,58.97
2022-10-05T17:10:30.310Z,59.34
2022-10-05T17:13:03.176Z,59.23
2022-10-05T17:15:42.834Z,59.59
2022-10-05T17:18:27.951Z,59.99
2022-10-05T17:21:34.920Z,60.62
2022-10-05T17:24:24.875Z,61.05
2022-10-05T17:27:25.839Z,61.15
2022-10-05T17:29:55.879Z,61.51
2022-10-05T17:32:22.586Z,61.98
2022-10-05T17:35:01.612Z,62.07
2022-10-05T17:37:28.298Z,62.27
2022-10-05T17:39:55.980Z,62.64
2022-10-05T17:46:46.052Z,63.24
2022-10-05T17:49:34.141Z,63.20
2022-10-05T17:52:22.720Z,63.55
2022-10-05T17:55:08.684Z,64.07
2022-10-05T17:57:37.160Z,64.53
2022-10-05T18:00:06.066Z,64.45
2022-10-05T18:02:36.607Z,64.49
2022-10-05T18:05:12.302Z,64.80
2022-10-05T18:07:49.890Z,65.12
2022-10-05T18:10:29.344Z,65.14
2022-10-05T18:12:59.081Z,65.29
2022-10-05T18:15:25.905Z,65.63
2022-10-05T18:18:20.554Z,65.82
2022-10-05T18:21:18.553Z,65.78
2022-10-05T18:24:01.832Z,66.15
2022-10-05T18:26:52.409Z,66.60
2022-10-05T18:30:00.639Z,66.65
2022-10-05T18:32:52.162Z,66.99
2022-10-05T18:35:29.733Z,66.93
2022-10-05T18:38:06.047Z,67.14
2022-10-05T18:40:49.134Z,67.24
2022-10-05T18:43:56.496Z,67.54
2022-10-05T18:46:34.115Z,67.50
2022-10-05T18:49:19.245Z,67.56
2022-10-05T18:51:59.014Z,67.69
2022-10-05T18:54:40.967Z,67.83
2022-10-05T18:57:26.668Z,67.98
2022-10-05T19:00:23.788Z,67.73
2022-10-05T19:03:01.037Z,67.84
2022-10-05T19:05:49.119Z,68.24
2022-10-05T19:08:42.066Z,68.32
2022-10-05T19:11:29.987Z,68.47
2022-10-05T19:14:18.569Z,68.75
2022-10-05T19:16:51.771Z,68.76
2022-10-05T19:19:39.063Z,69.10
2022-10-05T19:22:15.083Z,68.93
2022-10-05T19:24:44.918Z,68.98
2022-10-05T19:27:28.199Z,69.07
2022-10-05T19:30:25.387Z,68.94
2022-10-05T19:33:22.917Z,69.20
2022-10-05T19:36:23.219Z,69.22
2022-10-05T19:39:08.218Z,69.60
2022-10-05T19:41:40.918Z,69.76
2022-10-05T19:44:10.707Z,69.89
2022-10-05T19:46:46.559Z,69.82
2022-10-05T19:49:36.280Z,70.02
2022-10-05T19:52:13.131Z,70.07
2022-10-05T19:54:41.935Z,69.96
2022-10-05T19:57:18.119Z,70.30
2022-10-05T19:59:46.802Z,70.48
2022-10-05T20:02:17.265Z,70.69
2022-10-05T20:04:46.039Z,70.99
2022-10-05T20:07:21.765Z,70.99
2022-10-05T20:09:52.328Z,70.77
2022-10-05T20:12:23.104Z,70.87
2022-10-05T20:15:24.399Z,71.26
2022-10-05T20:18:09.970Z,71.43
2022-10-05T20:20:47.166Z,71.68
2022-10-05T20:23:28.108Z,71.41
2022-10-05T20:26:13.460Z,71.86
2022-10-05T20:28:40.324Z,71.96
2022-10-05T20:31:08.256Z,71.96
2022-10-05T20:33:35.102Z,72.17
2022-10-05T20:36:03.851Z,73.01
2022-10-05T20:38:31.644Z,73.84
2022-10-05T20:40:58.705Z,73.84
2022-10-05T20:43:25.459Z,73.77
2022-10-05T20:45:52.373Z,74.11
2022-10-05T20:48:19.972Z,74.58
2022-10-05T20:50:47.417Z,74.75
2022-10-05T20:53:14.140Z,74.65
2022-10-05T20:55:40.968Z,74.54
2022-10-05T20:58:09.127Z,73.88
2022-10-05T21:00:54.494Z,74.58
2022-10-05T21:03:21.239Z,74.52
2022-10-05T21:05:48.013Z,73.88
2022-10-05T21:08:15.333Z,73.68
2022-10-05T21:10:42.036Z,73.80
2022-10-05T21:13:09.264Z,74.11
2022-10-05T21:15:36.095Z,73.75
2022-10-05T21:18:02.783Z,73.13
2022-10-05T21:20:29.470Z,73.05
2022-10-05T21:22:56.124Z,72.96
2022-10-05T21:25:22.816Z,73.26
2022-10-05T21:27:50.350Z,73.01
2022-10-05T21:30:17.126Z,72.21
2022-10-05T21:32:44.770Z,72.67
2022-10-05T21:35:11.662Z,72.29
2022-10-05T21:37:38.395Z,71.93
2022-10-05T21:40:05.435Z,72.36
2022-10-05T21:42:32.213Z,71.77
2022-10-05T21:44:59.007Z,71.68
2022-10-05T21:47:25.812Z,71.23
2022-10-05T21:49:52.548Z,71.31
2022-10-05T21:52:19.669Z,71.07
2022-10-05T21:54:47.019Z,71.20
2022-10-05T21:57:14.815Z,70.88
2022-10-05T21:59:42.275Z,71.14
2022-10-05T22:02:08.985Z,71.41
2022-10-05T22:04:35.675Z,71.18
2022-10-05T22:07:09.737Z,71.34
2022-10-05T22:09:36.403Z,70.83
2022-10-05T22:12:03.066Z,71.08
2022-10-05T22:14:29.735Z,70.57
2022-10-05T22:16:56.469Z,69.90
2022-10-05T22:19:23.166Z,70.51
2022-10-05T22:21:49.797Z,70.46
2022-10-05T22:24:16.449Z,70.53
2022-10-05T22:26:44.882Z,69.92
2022-10-05T22:29:11.964Z,69.74
2022-10-05T22:31:39.230Z,69.76
2022-10-05T22:34:06.042Z,69.97
2022-10-05T22:36:35.405Z,70.37
2022-10-05T22:39:02.085Z,69.54
2022-10-05T22:41:28.836Z,69.48
2022-10-05T22:43:55.453Z,69.56
2022-10-05T22:46:22.111Z,69.59
2022-10-05T22:48:48.784Z,70.64
2022-10-05T22:51:15.544Z,70.80
2022-10-05T22:53:42.248Z,70.96
2022-10-05T22:56:11.085Z,71.45
2022-10-05T22:58:38.097Z,71.12
2022-10-05T23:01:07.255Z,71.64
2022-10-05T23:03:34.605Z,71.73
2022-10-05T23:06:04.777Z,71.85
2022-10-05T23:08:32.714Z,71.51
2022-10-05T23:11:04.243Z,71.50
2022-10-05T23:13:31.092Z,71.88
2022-10-05T23:15:57.759Z,71.89
2022-10-05T23:18:24.546Z,71.90
2022-10-05T23:20:57.549Z,71.11
2022-10-05T23:23:24.246Z,71.74
2022-10-05T23:25:51.046Z,72.25
2022-10-05T23:28:17.760Z,72.24
2022-10-05T23:30:44.752Z,72.46
2022-10-05T23:33:11.441Z,71.67
2022-10-05T23:35:38.145Z,71.80
2022-10-05T23:38:04.947Z,71.45
2022-10-05T23:40:31.620Z,71.85
2022-10-05T23:42:58.648Z,72.03
2022-10-05T23:45:25.326Z,72.15
2022-10-05T23:47:51.959Z,72.05
2022-10-05T23:50:20.642Z,72.96
2022-10-05T23:52:47.288Z,72.61
2022-10-05T23:55:13.986Z,72.29
2022-10-05T23:57:40.665Z,72.54
